createdAt,value
2023-03-31T00:00:56.197Z,622.93
2023-03-31T00:01:56.193Z,622.95
2023-03-31T00:02:56.308Z,622.98
2023-03-31T00:03:56.247Z,622.98
2023-03-31T00:04:56.194Z,622.96
2023-03-31T00:05:56.127Z,622.95
2023-03-31T00:06:56.119Z,622.97
2023-03-31T00:07:56.116Z,622.94
2023-03-31T00:08:56.117Z,622.90
2023-03-31T00:10:06.813Z,622.91
2023-03-31T00:10:56.072Z,622.94
2023-03-31T00:11:56.082Z,622.96
2023-03-31T00:12:56.048Z,622.97
2023-03-31T00:13:56.053Z,622.99
2023-03-31T00:14:56.050Z,622.99
2023-03-31T00:15:56.024Z,623.01
2023-03-31T00:16:56.039Z,623.00
2023-03-31T00:17:56.001Z,622.96
2023-03-31T00:18:56.002Z,622.98
2023-03-31T00:19:56.000Z,623.00
2023-03-31T00:20:55.979Z,623.00
2023-03-31T00:21:55.980Z,623.01
2023-03-31T00:22:55.955Z,623.00
2023-03-31T00:23:55.990Z,622.99
2023-03-31T00:24:55.926Z,622.98
2023-03-31T00:25:55.938Z,622.98
2023-03-31T00:26:55.894Z,622.98
2023-03-31T00:27:55.879Z,622.98
2023-03-31T00:28:55.872Z,622.99
2023-03-31T00:29:55.860Z,622.96
2023-03-31T00:30:55.880Z,622.98
2023-03-31T00:31:55.911Z,622.98
2023-03-31T00:32:55.889Z,623.00
2023-03-31T00:33:55.854Z,622.98
2023-03-31T00:34:55.830Z,622.98
2023-03-31T00:35:55.850Z,622.99
2023-03-31T00:36:55.784Z,622.99
2023-03-31T00:37:55.786Z,623.00
2023-03-31T00:38:55.783Z,622.99
2023-03-31T00:39:55.790Z,622.99
2023-03-31T00:40:55.736Z,622.99
2023-03-31T00:41:55.738Z,622.99
2023-03-31T00:43:02.730Z,623.01
2023-03-31T00:43:55.713Z,623.01
2023-03-31T00:44:55.713Z,622.98
2023-03-31T00:45:55.731Z,622.96
2023-03-31T00:46:55.676Z,622.97
2023-03-31T00:47:55.695Z,622.97
2023-03-31T00:48:55.662Z,622.94
2023-03-31T00:49:55.651Z,622.95
2023-03-31T00:50:55.658Z,622.92
2023-03-31T00:51:55.629Z,622.92
2023-03-31T00:52:55.612Z,622.93
2023-03-31T00:53:55.588Z,622.94
2023-03-31T00:54:55.623Z,622.95
2023-03-31T00:55:55.589Z,622.95
2023-03-31T00:56:55.608Z,622.97
2023-03-31T00:57:55.544Z,622.96
2023-03-31T00:58:55.546Z,622.95
2023-03-31T00:59:55.523Z,622.95
2023-03-31T01:00:55.556Z,622.96
2023-03-31T01:01:55.508Z,622.93
2023-03-31T01:02:55.510Z,622.95
2023-03-31T01:03:55.525Z,622.96
2023-03-31T01:04:55.471Z,622.96
2023-03-31T01:05:55.603Z,622.96
2023-03-31T01:06:55.476Z,622.95
2023-03-31T01:07:55.441Z,622.96
2023-03-31T01:08:55.432Z,622.97
2023-03-31T01:09:55.426Z,622.95
2023-03-31T01:10:55.487Z,622.93
2023-03-31T01:11:55.393Z,622.94
2023-03-31T01:12:55.383Z,622.97
2023-03-31T01:13:55.391Z,622.96
2023-03-31T01:14:55.383Z,622.98
2023-03-31T01:15:55.432Z,622.98
2023-03-31T01:16:55.425Z,622.98
2023-03-31T01:17:55.416Z,622.99
2023-03-31T01:18:55.317Z,623.00
2023-03-31T01:19:55.323Z,623.01
2023-03-31T01:20:55.296Z,623.00
2023-03-31T01:21:55.284Z,623.00
2023-03-31T01:22:55.312Z,622.99
2023-03-31T01:23:55.424Z,622.97
2023-03-31T01:24:55.271Z,622.97
2023-03-31T01:25:55.239Z,622.98
2023-03-31T01:26:55.270Z,622.98
2023-03-31T01:27:55.227Z,622.96
2023-03-31T01:28:55.206Z,622.97
2023-03-31T01:29:55.194Z,622.96
2023-03-31T01:30:55.239Z,622.95
2023-03-31T01:31:55.213Z,622.96
2023-03-31T01:32:55.267Z,622.96
2023-03-31T01:33:55.159Z,622.95
2023-03-31T01:34:55.159Z,622.93
2023-03-31T01:35:55.167Z,622.94
2023-03-31T01:36:55.167Z,622.96
2023-03-31T01:37:55.151Z,622.98
2023-03-31T01:38:55.124Z,622.97
2023-03-31T01:39:55.110Z,622.98
2023-03-31T01:40:55.076Z,622.97
2023-03-31T01:41:55.082Z,622.98
2023-03-31T01:42:55.073Z,622.98
2023-03-31T01:43:55.044Z,622.95
2023-03-31T01:44:55.035Z,622.94
2023-03-31T01:45:55.101Z,622.95
2023-03-31T01:46:55.557Z,622.97
2023-03-31T01:47:55.022Z,622.98
2023-03-31T01:48:55.002Z,622.98
2023-03-31T01:49:54.996Z,622.99
2023-03-31T01:50:54.968Z,623.00
2023-03-31T01:51:54.967Z,623.01
2023-03-31T01:52:54.964Z,623.02
2023-03-31T01:53:54.939Z,623.00
2023-03-31T01:54:54.947Z,623.00
2023-03-31T01:55:54.934Z,622.99
2023-03-31T01:56:54.978Z,622.95
2023-03-31T01:57:54.915Z,622.95
2023-03-31T01:58:54.881Z,622.97
2023-03-31T01:59:54.884Z,622.99
2023-03-31T02:00:54.886Z,622.99
2023-03-31T02:01:54.886Z,622.98
2023-03-31T02:02:54.966Z,622.97
2023-03-31T02:03:54.888Z,622.98
2023-03-31T02:04:54.844Z,622.98
2023-03-31T02:05:54.801Z,622.99
2023-03-31T02:06:54.806Z,622.99
2023-03-31T02:07:54.791Z,622.98
2023-03-31T02:08:54.772Z,622.97
2023-03-31T02:09:54.769Z,622.96
2023-03-31T02:10:54.778Z,622.95
2023-03-31T02:11:54.737Z,622.96
2023-03-31T02:12:54.736Z,622.95
2023-03-31T02:13:54.737Z,622.96
2023-03-31T02:14:54.706Z,622.96
2023-03-31T02:15:54.742Z,622.97
2023-03-31T02:16:54.781Z,622.98
2023-03-31T02:17:54.806Z,622.97
2023-03-31T02:18:54.680Z,622.99
2023-03-31T02:19:54.684Z,622.98
2023-03-31T02:20:54.664Z,622.98
2023-03-31T02:21:54.642Z,622.99
2023-03-31T02:22:54.645Z,622.97
2023-03-31T02:23:54.612Z,622.96
2023-03-31T02:24:54.599Z,622.99
2023-03-31T02:25:54.605Z,622.96
2023-03-31T02:26:54.608Z,622.94
2023-03-31T02:27:54.564Z,622.97
2023-03-31T02:28:54.568Z,622.96
2023-03-31T02:29:54.554Z,622.97
2023-03-31T02:30:54.525Z,622.99
2023-03-31T02:31:54.562Z,622.96
2023-03-31T02:32:54.553Z,622.98
2023-03-31T02:33:54.512Z,622.99
2023-03-31T02:34:54.504Z,622.98
2023-03-31T02:35:54.529Z,622.97
2023-03-31T02:36:54.475Z,622.95
2023-03-31T02:37:54.469Z,622.93
2023-03-31T02:38:54.451Z,622.92
2023-03-31T02:39:54.424Z,622.96
2023-03-31T02:40:54.423Z,622.96
2023-03-31T02:41:54.451Z,622.97
2023-03-31T02:42:54.437Z,622.98
2023-03-31T02:44:02.211Z,623.04
2023-03-31T02:44:54.392Z,623.01
2023-03-31T02:45:54.418Z,622.98
2023-03-31T02:46:54.397Z,622.94
2023-03-31T02:47:54.411Z,622.91
2023-03-31T02:48:54.354Z,622.90
2023-03-31T02:49:54.348Z,622.93
2023-03-31T02:50:54.323Z,622.91
2023-03-31T02:51:54.315Z,622.86
2023-03-31T02:52:54.405Z,622.91
2023-03-31T02:53:54.279Z,622.95
2023-03-31T02:54:54.284Z,622.93
2023-03-31T02:55:54.262Z,622.93
2023-03-31T02:56:54.261Z,622.93
2023-03-31T02:57:54.232Z,622.93
2023-03-31T02:58:54.247Z,622.95
2023-03-31T02:59:54.241Z,622.95
2023-03-31T03:00:54.257Z,622.96
2023-03-31T03:01:54.225Z,622.95
2023-03-31T03:02:54.269Z,622.90
2023-03-31T03:03:54.175Z,622.90
2023-03-31T03:04:54.187Z,622.93
2023-03-31T03:05:54.164Z,622.92
2023-03-31T03:06:54.148Z,622.91
2023-03-31T03:07:54.122Z,622.95
2023-03-31T03:08:54.121Z,622.91
2023-03-31T03:09:54.102Z,622.91
2023-03-31T03:10:54.101Z,622.94
2023-03-31T03:11:54.079Z,622.89
2023-03-31T03:12:54.066Z,622.86
2023-03-31T03:13:54.073Z,622.90
2023-03-31T03:14:54.077Z,622.89
2023-03-31T03:15:54.067Z,622.88
2023-03-31T03:16:54.093Z,622.90
2023-03-31T03:17:54.038Z,622.91
2023-03-31T03:18:54.013Z,622.96
2023-03-31T03:19:54.037Z,622.96
2023-03-31T03:20:54.005Z,622.97
2023-03-31T03:21:53.971Z,622.91
2023-03-31T03:22:53.976Z,622.94
2023-03-31T03:23:53.962Z,622.95
2023-03-31T03:24:53.936Z,622.93
2023-03-31T03:25:53.933Z,622.92
2023-03-31T03:26:53.934Z,622.91
2023-03-31T03:27:53.937Z,622.94
2023-03-31T03:28:53.901Z,622.96
2023-03-31T03:29:53.922Z,622.97
2023-03-31T03:30:53.928Z,622.98
2023-03-31T03:31:53.921Z,622.97
2023-03-31T03:32:53.877Z,622.98
2023-03-31T03:33:53.922Z,622.97
2023-03-31T03:34:53.852Z,622.98
2023-03-31T03:35:53.840Z,622.99
2023-03-31T03:36:53.820Z,622.97
2023-03-31T03:37:53.815Z,622.95
2023-03-31T03:38:53.786Z,622.96
2023-03-31T03:39:53.778Z,622.97
2023-03-31T03:40:53.776Z,622.95
2023-03-31T03:41:53.787Z,622.95
2023-03-31T03:42:53.737Z,622.96
2023-03-31T03:43:53.755Z,622.97
2023-03-31T03:44:53.768Z,622.96
2023-03-31T03:45:53.751Z,622.98
2023-03-31T03:46:53.716Z,622.97
2023-03-31T03:47:53.713Z,622.97
2023-03-31T03:48:53.688Z,622.98
2023-03-31T03:49:53.664Z,622.98
2023-03-31T03:50:53.656Z,623.00
2023-03-31T03:51:53.655Z,622.98
2023-03-31T03:52:53.631Z,622.97
2023-03-31T03:53:53.619Z,622.97
2023-03-31T03:54:53.616Z,622.98
2023-03-31T03:55:53.605Z,622.98
2023-03-31T03:56:53.598Z,622.99
2023-03-31T03:57:53.601Z,622.97
2023-03-31T03:58:53.563Z,622.99
2023-03-31T03:59:53.575Z,622.98
2023-03-31T04:00:53.538Z,622.98
2023-03-31T04:01:53.574Z,622.99
2023-03-31T04:02:53.545Z,622.99
2023-03-31T04:03:53.529Z,622.98
2023-03-31T04:04:53.553Z,622.97
2023-03-31T04:05:53.501Z,622.97
2023-03-31T04:06:53.488Z,622.96
2023-03-31T04:07:53.458Z,622.97
2023-03-31T04:08:53.461Z,622.97
2023-03-31T04:09:53.457Z,622.98
2023-03-31T04:10:53.451Z,622.98
2023-03-31T04:11:53.446Z,622.99
2023-03-31T04:12:53.419Z,623.01
2023-03-31T04:13:53.415Z,623.00
2023-03-31T04:14:53.382Z,623.00
2023-03-31T04:15:53.420Z,622.99
2023-03-31T04:16:53.375Z,622.98
2023-03-31T04:17:53.385Z,622.99
2023-03-31T04:18:53.364Z,622.99
2023-03-31T04:19:53.350Z,622.99
2023-03-31T04:20:53.326Z,622.99
2023-03-31T04:21:53.306Z,622.99
2023-03-31T04:22:53.290Z,623.00
2023-03-31T04:23:53.314Z,623.00
2023-03-31T04:24:53.268Z,623.01
2023-03-31T04:25:53.278Z,622.99
2023-03-31T04:26:53.267Z,622.97
2023-03-31T04:27:53.249Z,622.96
2023-03-31T04:28:53.224Z,622.96
2023-03-31T04:29:53.220Z,622.97
2023-03-31T04:30:53.224Z,622.96
2023-03-31T04:31:53.306Z,622.97
2023-03-31T04:32:53.490Z,622.97
2023-03-31T04:33:53.178Z,622.97
2023-03-31T04:34:53.205Z,622.98
2023-03-31T04:35:53.238Z,622.97
2023-03-31T04:36:53.134Z,622.98
2023-03-31T04:37:53.138Z,622.98
2023-03-31T04:38:53.317Z,622.97
2023-03-31T04:39:53.105Z,622.98
2023-03-31T04:40:53.108Z,622.96
2023-03-31T04:41:53.086Z,622.95
2023-03-31T04:42:53.093Z,622.97
2023-03-31T04:43:53.060Z,622.98
2023-03-31T04:45:00.619Z,623.02
2023-03-31T04:45:53.095Z,623.01
2023-03-31T04:46:53.044Z,622.98
2023-03-31T04:47:53.057Z,622.97
2023-03-31T04:48:53.000Z,622.96
2023-03-31T04:49:52.993Z,622.97
2023-03-31T04:50:53.015Z,622.96
2023-03-31T04:51:52.985Z,622.96
2023-03-31T04:52:52.954Z,622.96
2023-03-31T04:53:52.948Z,622.98
2023-03-31T04:54:52.957Z,622.98
2023-03-31T04:55:52.931Z,622.99
2023-03-31T04:56:52.951Z,622.98
2023-03-31T04:57:52.907Z,622.97
2023-03-31T04:58:52.905Z,622.96
2023-03-31T04:59:52.879Z,622.97
2023-03-31T05:00:52.926Z,622.96
2023-03-31T05:01:52.874Z,622.95
2023-03-31T05:02:52.938Z,622.99
2023-03-31T05:03:52.842Z,622.99
2023-03-31T05:04:52.839Z,622.98
2023-03-31T05:05:52.832Z,622.98
2023-03-31T05:06:52.828Z,622.97
2023-03-31T05:07:52.807Z,622.97
2023-03-31T05:08:52.852Z,622.96
2023-03-31T05:09:52.793Z,622.97
2023-03-31T05:10:52.765Z,622.98
2023-03-31T05:11:52.765Z,622.97
2023-03-31T05:12:52.760Z,622.97
2023-03-31T05:13:52.751Z,622.97
2023-03-31T05:14:52.761Z,622.98
2023-03-31T05:15:52.733Z,622.98
2023-03-31T05:16:52.728Z,622.99
2023-03-31T05:17:52.712Z,622.99
2023-03-31T05:18:52.687Z,622.99
2023-03-31T05:19:52.688Z,622.98
2023-03-31T05:20:52.688Z,622.97
2023-03-31T05:21:52.657Z,622.97
2023-03-31T05:22:52.676Z,622.98
2023-03-31T05:23:52.641Z,622.98
2023-03-31T05:24:52.647Z,622.98
2023-03-31T05:25:52.607Z,622.98
2023-03-31T05:26:52.662Z,622.97
2023-03-31T05:27:52.583Z,622.97
2023-03-31T05:28:53.009Z,622.97
2023-03-31T05:29:52.580Z,622.98
2023-03-31T05:30:52.597Z,622.98
2023-03-31T05:31:52.562Z,622.97
2023-03-31T05:32:52.810Z,622.98
2023-03-31T05:33:52.550Z,622.97
2023-03-31T05:34:52.518Z,622.95
2023-03-31T05:35:52.550Z,622.96
2023-03-31T05:36:52.488Z,622.98
2023-03-31T05:37:52.478Z,622.95
2023-03-31T05:38:52.563Z,622.97
2023-03-31T05:39:52.457Z,622.97
2023-03-31T05:40:53.165Z,622.97
2023-03-31T05:41:52.432Z,622.93
2023-03-31T05:42:52.426Z,622.95
2023-03-31T05:43:52.423Z,622.95
2023-03-31T05:44:52.426Z,622.92
2023-03-31T05:45:52.447Z,622.95
2023-03-31T05:46:52.394Z,622.95
2023-03-31T05:47:52.441Z,622.96
2023-03-31T05:48:52.405Z,622.97
2023-03-31T05:49:53.354Z,622.96
2023-03-31T05:50:52.338Z,622.96
2023-03-31T05:51:52.337Z,622.95
2023-03-31T05:52:52.341Z,622.93
2023-03-31T05:53:52.363Z,622.93
2023-03-31T05:54:52.303Z,622.96
2023-03-31T05:55:52.293Z,622.96
2023-03-31T05:56:52.646Z,622.96
2023-03-31T05:57:52.281Z,622.98
2023-03-31T05:58:52.247Z,622.95
2023-03-31T05:59:52.273Z,622.96
2023-03-31T06:00:52.241Z,622.95
2023-03-31T06:01:52.337Z,622.95
2023-03-31T06:02:52.310Z,622.95
2023-03-31T06:03:52.220Z,622.96
2023-03-31T06:04:52.203Z,622.97
2023-03-31T06:05:52.381Z,622.97
2023-03-31T06:06:52.175Z,622.95
2023-03-31T06:07:52.145Z,622.95
2023-03-31T06:08:52.174Z,622.95
2023-03-31T06:09:52.142Z,622.96
2023-03-31T06:10:52.154Z,622.95
2023-03-31T06:11:52.098Z,622.98
2023-03-31T06:12:52.100Z,622.97
2023-03-31T06:13:52.621Z,622.95
2023-03-31T06:14:52.060Z,622.97
2023-03-31T06:15:52.065Z,622.98
2023-03-31T06:16:52.121Z,622.98
2023-03-31T06:17:52.113Z,622.98
2023-03-31T06:18:52.022Z,622.95
2023-03-31T06:19:52.026Z,622.95
2023-03-31T06:20:52.002Z,622.95
2023-03-31T06:21:51.996Z,622.95
2023-03-31T06:22:51.992Z,622.98
2023-03-31T06:23:51.966Z,622.97
2023-03-31T06:24:51.958Z,622.99
2023-03-31T06:25:52.187Z,622.98
2023-03-31T06:26:53.759Z,622.99
2023-03-31T06:27:51.945Z,622.98
2023-03-31T06:28:51.947Z,622.98
2023-03-31T06:29:51.929Z,623.00
2023-03-31T06:30:51.917Z,622.98
2023-03-31T06:31:51.932Z,622.97
2023-03-31T06:32:51.919Z,622.98
2023-03-31T06:33:51.866Z,622.98
2023-03-31T06:34:51.862Z,622.98
2023-03-31T06:35:51.899Z,622.97
2023-03-31T06:36:51.867Z,622.98
2023-03-31T06:37:51.849Z,622.99
2023-03-31T06:38:51.809Z,622.96
2023-03-31T06:39:52.135Z,622.98
2023-03-31T06:40:51.788Z,622.97
2023-03-31T06:41:51.865Z,622.95
2023-03-31T06:42:51.787Z,622.94
2023-03-31T06:43:51.779Z,622.94
2023-03-31T06:44:51.769Z,622.93
2023-03-31T06:45:59.310Z,622.99
2023-03-31T06:46:51.750Z,622.98
2023-03-31T06:47:51.796Z,622.93
2023-03-31T06:48:51.699Z,622.92
2023-03-31T06:49:52.713Z,622.93
2023-03-31T06:50:51.694Z,622.93
2023-03-31T06:51:51.754Z,622.93
2023-03-31T06:52:51.667Z,622.90
2023-03-31T06:53:51.651Z,622.92
2023-03-31T06:54:51.627Z,622.93
2023-03-31T06:55:51.632Z,622.94
2023-03-31T06:56:51.695Z,622.94
2023-03-31T06:57:51.625Z,622.91
2023-03-31T06:58:51.602Z,622.88
2023-03-31T06:59:51.573Z,622.91
2023-03-31T07:00:51.608Z,622.91
2023-03-31T07:01:51.590Z,622.95
2023-03-31T07:02:51.625Z,622.94
2023-03-31T07:03:51.626Z,622.95
2023-03-31T07:04:51.517Z,622.95
2023-03-31T07:05:51.544Z,622.96
2023-03-31T07:06:51.629Z,622.99
2023-03-31T07:07:51.488Z,622.98
2023-03-31T07:08:51.499Z,622.99
2023-03-31T07:09:51.462Z,622.99
2023-03-31T07:10:51.468Z,623.00
2023-03-31T07:11:51.459Z,623.00
2023-03-31T07:12:51.427Z,622.97
2023-03-31T07:13:51.445Z,622.99
2023-03-31T07:14:51.436Z,623.02
2023-03-31T07:15:51.516Z,623.00
2023-03-31T07:16:51.642Z,622.95
2023-03-31T07:17:51.441Z,622.94
2023-03-31T07:18:51.368Z,622.95
2023-03-31T07:19:51.365Z,622.96
2023-03-31T07:20:51.377Z,622.97
2023-03-31T07:21:51.330Z,622.98
2023-03-31T07:22:51.341Z,622.99
2023-03-31T07:23:51.308Z,623.00
2023-03-31T07:24:51.316Z,623.03
2023-03-31T07:25:51.297Z,623.02
2023-03-31T07:26:51.274Z,623.06
2023-03-31T07:27:51.276Z,623.05
2023-03-31T07:28:51.361Z,623.03
2023-03-31T07:29:51.255Z,623.02
2023-03-31T07:30:51.266Z,622.99
2023-03-31T07:31:51.280Z,622.99
2023-03-31T07:32:51.432Z,623.00
2023-03-31T07:33:51.289Z,623.03
2023-03-31T07:34:51.660Z,623.04
2023-03-31T07:36:03.588Z,623.06
2023-03-31T07:36:51.240Z,623.02
2023-03-31T07:37:51.176Z,623.04
2023-03-31T07:38:51.193Z,623.08
2023-03-31T07:39:51.150Z,623.08
2023-03-31T07:41:05.760Z,623.11
2023-03-31T07:41:51.113Z,623.16
2023-03-31T07:42:51.276Z,623.06
2023-03-31T07:43:51.705Z,623.05
2023-03-31T07:44:51.102Z,623.03
2023-03-31T07:45:51.095Z,623.07
2023-03-31T07:46:51.100Z,623.15
2023-03-31T07:47:51.197Z,623.14
2023-03-31T07:48:51.065Z,623.09
2023-03-31T07:49:51.027Z,623.13
2023-03-31T07:50:51.082Z,623.28
2023-03-31T07:51:51.026Z,624.48
2023-03-31T07:52:51.085Z,623.92
2023-03-31T07:53:50.981Z,623.53
2023-03-31T07:54:51.035Z,623.63
2023-03-31T07:55:51.056Z,624.21
2023-03-31T07:56:51.091Z,623.65
2023-03-31T07:57:50.945Z,623.28
2023-03-31T07:58:50.942Z,623.10
2023-03-31T07:59:50.918Z,623.07
2023-03-31T08:00:50.977Z,623.02
2023-03-31T08:01:50.926Z,622.95
2023-03-31T08:02:50.985Z,622.94
2023-03-31T08:03:50.897Z,622.97
2023-03-31T08:04:51.669Z,622.93
2023-03-31T08:05:52.393Z,622.93
2023-03-31T08:06:50.930Z,622.97
2023-03-31T08:07:50.931Z,622.94
2023-03-31T08:08:51.105Z,622.95
2023-03-31T08:09:50.860Z,622.94
2023-03-31T08:10:50.827Z,622.95
2023-03-31T08:11:50.802Z,622.95
2023-03-31T08:12:50.791Z,622.96
2023-03-31T08:13:51.287Z,622.97
2023-03-31T08:14:51.004Z,623.00
2023-03-31T08:15:50.822Z,623.00
2023-03-31T08:16:50.798Z,623.01
2023-03-31T08:17:50.841Z,623.02
2023-03-31T08:18:50.749Z,623.04
2023-03-31T08:19:50.803Z,623.07
2023-03-31T08:20:51.016Z,623.17
2023-03-31T08:21:51.728Z,623.04
2023-03-31T08:22:50.678Z,622.99
2023-03-31T08:23:50.702Z,622.95
2023-03-31T08:24:50.765Z,622.96
2023-03-31T08:25:50.703Z,622.92
2023-03-31T08:26:50.809Z,622.92
2023-03-31T08:27:50.633Z,622.87
2023-03-31T08:28:50.604Z,622.87
2023-03-31T08:29:50.651Z,622.88
2023-03-31T08:30:50.604Z,622.87
2023-03-31T08:31:50.651Z,622.92
2023-03-31T08:32:50.619Z,622.92
2023-03-31T08:33:50.582Z,622.89
2023-03-31T08:34:50.567Z,622.89
2023-03-31T08:35:50.859Z,622.91
2023-03-31T08:36:50.516Z,622.86
2023-03-31T08:37:50.660Z,622.86
2023-03-31T08:38:50.514Z,622.87
2023-03-31T08:39:50.477Z,622.87
2023-03-31T08:40:50.478Z,622.86
2023-03-31T08:41:50.476Z,622.86
2023-03-31T08:42:50.498Z,622.87
2023-03-31T08:43:50.443Z,622.90
2023-03-31T08:44:50.501Z,622.87
2023-03-31T08:45:50.454Z,622.87
2023-03-31T08:46:58.083Z,622.97
2023-03-31T08:47:50.446Z,622.95
2023-03-31T08:48:50.477Z,622.91
2023-03-31T08:49:50.389Z,622.84
2023-03-31T08:50:50.386Z,622.86
2023-03-31T08:51:50.350Z,622.86
2023-03-31T08:52:50.367Z,622.88
2023-03-31T08:53:50.332Z,622.89
2023-03-31T08:54:50.318Z,622.89
2023-03-31T08:55:50.702Z,622.90
2023-03-31T08:56:50.307Z,622.93
2023-03-31T08:57:50.366Z,622.94
2023-03-31T08:58:50.333Z,622.93
2023-03-31T08:59:50.274Z,622.92
2023-03-31T09:00:50.305Z,622.86
2023-03-31T09:01:56.038Z,622.92
2023-03-31T09:02:50.314Z,622.89
2023-03-31T09:03:50.300Z,622.87
2023-03-31T09:04:50.218Z,622.89
2023-03-31T09:06:00.181Z,622.88
2023-03-31T09:06:50.724Z,622.92
2023-03-31T09:07:50.182Z,622.85
2023-03-31T09:08:50.207Z,622.90
2023-03-31T09:09:50.162Z,622.88
2023-03-31T09:10:50.188Z,622.92
2023-03-31T09:11:50.277Z,622.94
2023-03-31T09:12:50.178Z,622.87
2023-03-31T09:13:50.131Z,622.92
2023-03-31T09:14:50.107Z,622.94
2023-03-31T09:15:50.516Z,622.96
2023-03-31T09:16:50.209Z,622.90
2023-03-31T09:17:50.119Z,622.89
2023-03-31T09:18:50.095Z,622.91
2023-03-31T09:19:50.093Z,622.95
2023-03-31T09:20:50.070Z,622.91
2023-03-31T09:21:50.192Z,622.96
2023-03-31T09:22:50.084Z,622.94
2023-03-31T09:23:50.058Z,622.95
2023-03-31T09:24:50.047Z,622.92
2023-03-31T09:25:49.994Z,622.95
2023-03-31T09:26:50.020Z,622.98
2023-03-31T09:27:49.958Z,622.98
2023-03-31T09:28:49.952Z,622.97
2023-03-31T09:29:49.991Z,622.93
2023-03-31T09:30:49.939Z,622.88
2023-03-31T09:31:49.966Z,622.92
2023-03-31T09:32:49.996Z,622.92
2023-03-31T09:33:49.940Z,622.95
2023-03-31T09:34:49.910Z,622.94
2023-03-31T09:35:51.537Z,622.95
2023-03-31T09:36:49.865Z,622.95
2023-03-31T09:37:49.888Z,622.93
2023-03-31T09:38:49.902Z,622.96
2023-03-31T09:39:50.709Z,622.90
2023-03-31T09:40:49.831Z,622.84
2023-03-31T09:41:49.828Z,622.86
2023-03-31T09:42:49.823Z,622.93
2023-03-31T09:43:49.808Z,622.95
2023-03-31T09:44:49.825Z,622.97
2023-03-31T09:46:07.803Z,622.99
2023-03-31T09:46:50.890Z,622.98
2023-03-31T09:47:49.843Z,622.96
2023-03-31T09:48:49.749Z,622.98
2023-03-31T09:49:54.085Z,622.98
2023-03-31T09:50:49.712Z,622.97
2023-03-31T09:51:49.708Z,622.97
2023-03-31T09:52:49.708Z,622.98
2023-03-31T09:53:49.700Z,622.96
2023-03-31T09:54:49.752Z,622.97
2023-03-31T09:55:49.681Z,623.01
2023-03-31T09:56:49.709Z,623.05
2023-03-31T09:57:49.667Z,623.03
2023-03-31T09:58:49.649Z,623.01
2023-03-31T09:59:49.632Z,623.01
2023-03-31T10:00:49.604Z,623.00
2023-03-31T10:01:49.648Z,623.02
2023-03-31T10:02:49.635Z,623.03
2023-03-31T10:03:49.662Z,623.01
2023-03-31T10:04:49.782Z,623.00
2023-03-31T10:05:49.554Z,623.02
2023-03-31T10:06:49.561Z,623.05
2023-03-31T10:07:49.572Z,623.07
2023-03-31T10:08:49.524Z,623.12
2023-03-31T10:09:49.536Z,623.26
2023-03-31T10:10:49.535Z,623.46
2023-03-31T10:11:49.493Z,623.55
2023-03-31T10:12:49.478Z,623.87
2023-03-31T10:13:49.487Z,623.97
2023-03-31T10:14:49.474Z,623.97
2023-03-31T10:15:49.479Z,624.23
2023-03-31T10:16:49.445Z,623.99
2023-03-31T10:17:54.898Z,624.09
2023-03-31T10:18:50.423Z,624.63
2023-03-31T10:19:49.399Z,625.88
2023-03-31T10:20:49.389Z,626.27
2023-03-31T10:21:49.372Z,626.34
2023-03-31T10:22:49.428Z,625.71
2023-03-31T10:23:49.367Z,624.60
2023-03-31T10:24:49.362Z,625.01
2023-03-31T10:25:49.337Z,625.49
2023-03-31T10:26:49.346Z,626.56
2023-03-31T10:27:49.314Z,627.51
2023-03-31T10:28:49.319Z,628.59
2023-03-31T10:29:49.284Z,629.45
2023-03-31T10:30:49.336Z,627.44
2023-03-31T10:31:49.319Z,625.81
2023-03-31T10:32:52.582Z,625.59
2023-03-31T10:33:49.295Z,624.41
2023-03-31T10:34:49.240Z,625.68
2023-03-31T10:35:49.237Z,624.96
2023-03-31T10:36:49.251Z,623.75
2023-03-31T10:37:49.194Z,623.90
2023-03-31T10:38:49.187Z,623.10
2023-03-31T10:39:49.182Z,623.09
2023-03-31T10:40:49.223Z,623.09
2023-03-31T10:41:49.151Z,623.20
2023-03-31T10:42:49.179Z,624.52
2023-03-31T10:43:49.127Z,623.04
2023-03-31T10:44:49.118Z,623.08
2023-03-31T10:45:49.156Z,623.18
2023-03-31T10:46:49.183Z,624.38
2023-03-31T10:47:56.700Z,628.96
2023-03-31T10:48:49.077Z,630.20
2023-03-31T10:49:49.077Z,627.94
2023-03-31T10:50:49.114Z,624.05
2023-03-31T10:51:49.046Z,623.20
2023-03-31T10:52:49.032Z,623.17
2023-03-31T10:53:49.023Z,623.32
2023-03-31T10:54:49.015Z,623.58
2023-03-31T10:55:49.041Z,623.51
2023-03-31T10:56:50.174Z,625.19
2023-03-31T10:57:48.984Z,626.32
2023-03-31T10:59:01.981Z,626.43
2023-03-31T10:59:49.947Z,626.46
2023-03-31T11:00:48.955Z,624.95
2023-03-31T11:01:49.009Z,623.21
2023-03-31T11:02:48.969Z,623.26
2023-03-31T11:03:49.922Z,623.95
2023-03-31T11:04:48.925Z,622.90
2023-03-31T11:05:48.885Z,622.92
2023-03-31T11:06:48.890Z,622.95
2023-03-31T11:07:48.906Z,622.97
2023-03-31T11:08:48.857Z,622.98
2023-03-31T11:09:48.841Z,622.97
2023-03-31T11:10:48.843Z,622.99
2023-03-31T11:11:48.838Z,623.01
2023-03-31T11:12:48.843Z,623.10
2023-03-31T11:13:48.816Z,624.43
2023-03-31T11:14:48.811Z,624.39
2023-03-31T11:15:48.812Z,625.11
2023-03-31T11:16:48.809Z,623.88
2023-03-31T11:17:48.847Z,625.06
2023-03-31T11:18:48.787Z,626.61
2023-03-31T11:19:48.729Z,629.89
2023-03-31T11:20:48.721Z,628.03
2023-03-31T11:21:48.732Z,628.31
2023-03-31T11:22:48.724Z,631.32
2023-03-31T11:23:48.693Z,631.23
2023-03-31T11:24:48.730Z,633.97
2023-03-31T11:25:48.682Z,635.57
2023-03-31T11:26:48.712Z,636.81
2023-03-31T11:27:48.655Z,629.98
2023-03-31T11:28:48.642Z,627.43
2023-03-31T11:29:48.622Z,629.02
2023-03-31T11:30:48.631Z,631.87
2023-03-31T11:31:48.638Z,631.42
2023-03-31T11:32:48.686Z,632.96
2023-03-31T11:33:48.635Z,633.35
2023-03-31T11:34:48.567Z,637.99
2023-03-31T11:35:48.590Z,633.34
2023-03-31T11:36:48.558Z,634.23
2023-03-31T11:37:48.536Z,636.40
2023-03-31T11:38:48.547Z,637.22
2023-03-31T11:39:48.513Z,641.27
2023-03-31T11:40:48.529Z,638.83
2023-03-31T11:41:48.492Z,637.24
2023-03-31T11:42:48.489Z,635.51
2023-03-31T11:43:48.478Z,630.84
2023-03-31T11:44:48.461Z,628.96
2023-03-31T11:45:48.495Z,628.89
2023-03-31T11:46:48.476Z,630.21
2023-03-31T11:47:48.478Z,630.56
2023-03-31T11:48:48.420Z,632.33
2023-03-31T11:49:48.419Z,634.12
2023-03-31T11:50:48.427Z,638.27
2023-03-31T11:51:48.385Z,636.68
2023-03-31T11:52:48.375Z,634.96
2023-03-31T11:53:48.382Z,635.03
2023-03-31T11:54:48.368Z,636.54
2023-03-31T11:55:48.384Z,638.79
2023-03-31T11:56:48.353Z,637.08
2023-03-31T11:57:48.315Z,635.03
2023-03-31T11:58:48.311Z,634.74
2023-03-31T11:59:48.292Z,635.61
2023-03-31T12:00:48.285Z,637.03
2023-03-31T12:01:48.287Z,637.68
2023-03-31T12:02:48.325Z,638.14
2023-03-31T12:03:48.292Z,639.52
2023-03-31T12:04:48.234Z,636.04
2023-03-31T12:05:48.242Z,636.47
2023-03-31T12:06:48.216Z,636.67
2023-03-31T12:07:48.221Z,636.54
2023-03-31T12:08:48.219Z,630.88
2023-03-31T12:09:48.184Z,631.05
2023-03-31T12:10:48.249Z,632.56
2023-03-31T12:11:48.776Z,634.32
2023-03-31T12:12:48.152Z,637.38
2023-03-31T12:13:48.144Z,641.65
2023-03-31T12:14:48.142Z,637.95
2023-03-31T12:15:48.205Z,638.06
2023-03-31T12:16:48.102Z,639.68
2023-03-31T12:17:48.126Z,637.21
2023-03-31T12:18:48.150Z,635.32
2023-03-31T12:19:48.123Z,635.84
2023-03-31T12:20:48.072Z,632.49
2023-03-31T12:21:48.064Z,634.53
2023-03-31T12:22:48.036Z,637.40
2023-03-31T12:23:48.035Z,640.47
2023-03-31T12:24:48.025Z,643.34
2023-03-31T12:25:48.008Z,642.77
2023-03-31T12:26:47.993Z,642.38
2023-03-31T12:27:47.998Z,642.52
2023-03-31T12:28:47.988Z,643.71